Time;durP1;ratioP1;P1;durP2;ratioP2;P2;SDS_P1;SDS_P2;PMS_P1;PMS_P2;Temp;Humidity;BMP_temperature;BMP_pressure;BME280_temperature;BME280_humidity;BME280_pressure;Samples;Min_cycle;Max_cycle;Signal;HPM_P1;HPM_P2
2023/10/24 00:00:33;;;;;;;0.77;0.77;;;;;;;0.78;100.00;98203.25;4751846;30;20054;-82
2023/10/24 00:03:01;;;;;;;0.90;0.90;;;;;;;0.86;100.00;98204.91;4750999;30;20052;-83
2023/10/24 00:05:29;;;;;;;0.98;0.98;;;;;;;0.93;100.00;98202.25;4736839;30;20471;-82
2023/10/24 00:07:56;;;;;;;1.00;1.00;;;;;;;0.93;100.00;98208.38;4751262;30;20052;-83
2023/10/24 00:10:26;;;;;;;1.00;1.00;;;;;;;0.88;100.00;98208.16;4752492;30;20064;-83
2023/10/24 00:12:53;;;;;;;0.95;0.95;;;;;;;0.86;100.00;98205.72;4752307;30;20084;-83
2023/10/24 00:15:20;;;;;;;1.10;1.10;;;;;;;0.86;100.00;98212.88;4752515;30;20522;-83
2023/10/24 00:17:48;;;;;;;0.90;0.90;;;;;;;0.86;100.00;98216.38;4752427;30;20048;-83
2023/10/24 00:20:15;;;;;;;1.00;1.00;;;;;;;0.86;100.00;98219.03;4751476;30;20060;-82
2023/10/24 00:22:42;;;;;;;0.60;0.60;;;;;;;0.84;100.00;98209.63;4752566;30;20183;-82
2023/10/24 00:25:10;;;;;;;0.93;0.93;;;;;;;0.84;100.00;98214.94;4736503;30;20421;-83
2023/10/24 00:27:37;;;;;;;0.90;0.90;;;;;;;0.84;100.00;98221.06;4751159;30;20087;-83
2023/10/24 00:30:05;;;;;;;1.00;1.00;;;;;;;0.86;100.00;98221.69;4751237;30;20152;-83
2023/10/24 00:32:32;;;;;;;0.88;0.88;;;;;;;0.92;100.00;98221.88;4752409;30;20056;-83
2023/10/24 00:34:59;;;;;;;0.90;0.90;;;;;;;0.89;100.00;98220.47;4752245;30;20067;-83
2023/10/24 00:37:29;;;;;;;0.90;0.90;;;;;;;0.91;100.00;98228.19;4751135;30;20501;-82
2023/10/24 00:39:56;;;;;;;0.90;0.90;;;;;;;0.95;100.00;98237.41;4752341;30;20054;-83
2023/10/24 00:42:23;;;;;;;0.93;0.93;;;;;;;0.93;100.00;98234.94;4736451;30;20076;-82
2023/10/24 00:44:50;;;;;;;0.93;0.93;;;;;;;0.93;100.00;98231.47;4751867;30;20060;-83
2023/10/24 00:47:17;;;;;;;1.00;1.00;;;;;;;0.88;100.00;98231.28;4752196;30;20134;-82
2023/10/24 00:49:45;;;;;;;0.90;0.90;;;;;;;0.86;100.00;98239.44;4750679;30;20056;-82
2023/10/24 00:52:13;;;;;;;0.95;0.95;;;;;;;0.85;100.00;98241.28;4751489;30;20060;-83
2023/10/24 00:54:42;;;;;;;1.00;1.00;;;;;;;0.85;100.00;98233.31;4751953;30;20068;-82
2023/10/24 00:57:11;;;;;;;0.90;0.90;;;;;;;0.85;100.00;98241.28;4750744;30;20063;-82
2023/10/24 00:59:43;;;;;;;0.82;0.82;;;;;;;0.87;100.00;98243.75;4750445;30;20056;-84
2023/10/24 01:02:11;;;;;;;0.90;0.90;;;;;;;0.87;100.00;98243.75;4751898;30;20048;-83
2023/10/24 01:04:39;;;;;;;1.00;1.00;;;;;;;0.91;100.00;98244.16;4750348;30;20135;-82
2023/10/24 01:07:06;;;;;;;0.85;0.85;;;;;;;0.97;100.00;98254.81;4750683;30;20125;-83
2023/10/24 01:09:34;;;;;;;0.90;0.90;;;;;;;0.97;100.00;98257.47;4750850;30;20060;-83
2023/10/24 01:12:02;;;;;;;1.00;1.00;;;;;;;0.95;100.00;98256.03;4735533;30;20063;-83
2023/10/24 01:14:29;;;;;;;0.90;0.90;;;;;;;0.99;100.00;98254.59;4751757;30;20681;-84
2023/10/24 01:16:56;;;;;;;0.90;0.90;;;;;;;1.02;100.00;98259.50;4750344;30;20078;-82
2023/10/24 01:19:23;;;;;;;0.88;0.88;;;;;;;1.03;100.00;98258.47;4751663;30;20083;-83
2023/10/24 01:21:50;;;;;;;1.00;1.00;;;;;;;1.02;100.00;98262.19;4751711;30;20098;-84
2023/10/24 01:24:17;;;;;;;0.98;0.98;;;;;;;1.04;100.00;98265.44;4751793;30;20068;-84
2023/10/24 01:26:44;;;;;;;0.90;0.90;;;;;;;0.99;100.00;98265.25;4750044;30;20051;-83
2023/10/24 01:29:12;;;;;;;1.00;1.00;;;;;;;0.96;100.00;98263.81;4751465;30;20597;-84
2023/10/24 01:31:40;;;;;;;0.85;0.85;;;;;;;0.96;100.00;98263.81;4750001;30;20504;-84
2023/10/24 01:34:07;;;;;;;1.00;1.00;;;;;;;1.00;100.00;98273.00;4750309;30;20084;-82
2023/10/24 01:36:34;;;;;;;0.90;0.90;;;;;;;0.95;100.00;98275.44;4751314;30;20064;-83
2023/10/24 01:39:07;;;;;;;0.82;0.82;;;;;;;0.94;100.00;98286.25;4751318;30;20083;-83
2023/10/24 01:41:34;;;;;;;0.90;0.90;;;;;;;0.85;100.00;98257.22;4751119;30;20094;-83
2023/10/24 01:44:01;;;;;;;0.90;0.90;;;;;;;0.88;100.00;98285.22;4751113;30;20056;-84
2023/10/24 01:46:30;;;;;;;1.00;1.00;;;;;;;0.88;100.00;98287.06;4749831;30;20054;-83
2023/10/24 01:48:57;;;;;;;0.90;0.90;;;;;;;0.85;100.00;98291.75;4750709;30;20081;-83
2023/10/24 01:51:24;;;;;;;1.00;1.00;;;;;;;0.89;100.00;98291.34;4749873;30;20461;-83
2023/10/24 01:53:52;;;;;;;0.95;0.95;;;;;;;0.92;100.00;98275.03;4750794;30;20164;-82
2023/10/24 01:56:19;;;;;;;1.00;1.00;;;;;;;0.91;100.00;98291.97;4749971;30;20063;-82
2023/10/24 01:58:47;;;;;;;0.80;0.80;;;;;;;0.93;100.00;98300.56;4749884;30;20072;-83
2023/10/24 02:01:15;;;;;;;1.00;1.00;;;;;;;0.94;100.00;98303.03;4750658;30;20058;-83
2023/10/24 02:03:43;;;;;;;0.82;0.82;;;;;;;0.96;100.00;98297.50;4749514;30;20056;-83
2023/10/24 02:06:10;;;;;;;0.80;0.80;;;;;;;0.97;100.00;98296.50;4751029;30;20052;-83
2023/10/24 02:08:39;;;;;;;1.00;1.00;;;;;;;1.01;100.00;98301.22;4749529;30;20076;-82
2023/10/24 02:11:07;;;;;;;1.00;1.00;;;;;;;1.04;100.00;98310.63;4750955;30;20095;-83
2023/10/24 02:13:34;;;;;;;1.10;1.10;;;;;;;1.00;100.00;98312.03;4750545;30;20568;-83
2023/10/24 02:16:01;;;;;;;0.90;0.90;;;;;;;1.02;100.00;98315.31;4749555;30;20548;-83
2023/10/24 02:18:29;;;;;;;0.98;0.98;;;;;;;1.01;100.00;98321.63;4750893;30;20064;-83
2023/10/24 02:20:56;;;;;;;0.90;0.90;;;;;;;1.04;100.00;98318.59;4750283;30;20062;-82
2023/10/24 02:23:33;;;;;;;0.90;0.90;;;;;;;1.08;100.00;98325.13;4749518;30;20056;-82
2023/10/24 02:26:00;;;;;;;0.90;0.90;;;;;;;1.02;100.00;98320.63;4749182;30;20062;-82
2023/10/24 02:28:27;;;;;;;0.90;0.90;;;;;;;1.08;100.00;98330.44;4749578;30;20075;-82
2023/10/24 02:30:55;;;;;;;0.90;0.90;;;;;;;1.11;100.00;98326.56;4750463;30;20147;-82
2023/10/24 02:33:26;;;;;;;0.70;0.70;;;;;;;1.16;100.00;98319.63;4749293;30;20079;-81
2023/10/24 02:35:53;;;;;;;0.90;0.90;;;;;;;1.17;100.00;98325.78;4750117;30;20052;-82
2023/10/24 02:38:21;;;;;;;0.80;0.80;;;;;;;1.16;100.00;98324.13;4749524;30;20052;-83
2023/10/24 02:40:52;;;;;;;0.88;0.88;;;;;;;1.24;100.00;98327.44;4750554;30;20062;-83
2023/10/24 02:43:20;;;;;;;1.00;1.00;;;;;;;1.21;100.00;98330.47;4749272;30;20163;-82
2023/10/24 02:45:47;;;;;;;1.10;1.10;;;;;;;1.23;100.00;98343.59;4750263;30;20143;-82
2023/10/24 02:48:20;;;;;;;1.00;1.00;;;;;;;1.21;100.00;98341.13;4749413;30;20668;-83
2023/10/24 02:50:53;;;;;;;0.98;0.98;;;;;;;1.19;100.00;98343.19;4750043;30;20402;-82
2023/10/24 02:53:20;;;;;;;1.00;1.00;;;;;;;1.15;100.00;98347.25;4752542;30;20048;-83
2023/10/24 02:55:48;;;;;;;0.90;0.90;;;;;;;1.11;100.00;98350.50;4752507;30;20060;-82
2023/10/24 02:58:16;;;;;;;0.80;0.80;;;;;;;1.09;100.00;98350.72;4753771;30;20060;-82
2023/10/24 03:00:44;;;;;;;1.00;1.00;;;;;;;1.15;100.00;98363.19;4753966;30;20087;-83
2023/10/24 03:03:12;;;;;;;1.00;1.00;;;;;;;1.15;100.00;98368.50;4753685;30;20516;-82
2023/10/24 03:05:40;;;;;;;1.00;1.00;;;;;;;1.15;100.00;98363.19;4753749;30;20544;-82
2023/10/24 03:08:08;;;;;;;0.90;0.90;;;;;;;1.09;100.00;98358.69;4753879;30;20143;-83
2023/10/24 03:10:40;;;;;;;0.80;0.80;;;;;;;1.08;100.00;98354.38;4753740;30;20060;-83
2023/10/24 03:13:07;;;;;;;0.93;0.93;;;;;;;1.06;100.00;98353.75;4752956;30;20550;-82
2023/10/24 03:15:35;;;;;;;0.90;0.90;;;;;;;1.06;100.00;98351.09;4753819;30;20071;-81
2023/10/24 03:18:02;;;;;;;0.90;0.90;;;;;;;1.04;100.00;98351.31;4752375;30;20090;-82
2023/10/24 03:20:30;;;;;;;0.90;0.90;;;;;;;1.06;100.00;98349.28;4753451;30;20052;-82
2023/10/24 03:22:57;;;;;;;0.90;0.90;;;;;;;1.15;100.00;98360.53;4753302;30;20056;-83
2023/10/24 03:25:26;;;;;;;0.90;0.90;;;;;;;1.17;100.00;98363.00;4752464;30;20420;-82
2023/10/24 03:27:54;;;;;;;1.00;1.00;;;;;;;1.18;100.00;98360.13;4753928;30;20067;-83
2023/10/24 03:30:22;;;;;;;0.90;0.90;;;;;;;1.18;100.00;98373.41;4753257;30;20054;-83
2023/10/24 03:32:50;;;;;;;0.90;0.90;;;;;;;1.11;100.00;98361.94;4752113;30;20052;-82
2023/10/24 03:35:17;;;;;;;0.90;0.90;;;;;;;1.08;100.00;98367.66;4752205;30;20462;-82
2023/10/24 03:37:53;;;;;;;1.00;1.00;;;;;;;1.12;100.00;98379.53;4752158;30;20063;-82
2023/10/24 03:40:25;;;;;;;0.90;0.90;;;;;;;1.09;100.00;98371.97;4751638;30;20056;-83
2023/10/24 03:42:53;;;;;;;1.00;1.00;;;;;;;1.20;100.00;98379.34;4752480;30;20143;-83
2023/10/24 03:45:20;;;;;;;0.90;0.90;;;;;;;1.23;100.00;98386.94;4752783;30;20477;-83
2023/10/24 03:47:52;;;;;;;0.90;0.90;;;;;;;1.25;100.00;98389.41;4766133;30;20222;-84
2023/10/24 03:50:22;;;;;;;0.98;0.98;;;;;;;1.29;100.00;98388.81;4753242;30;20094;-82
2023/10/24 03:52:49;;;;;;;1.00;1.00;;;;;;;1.33;100.00;98386.56;4751672;30;20142;-83
2023/10/24 03:55:16;;;;;;;0.90;0.90;;;;;;;1.36;100.00;98385.34;4753112;30;20062;-82
2023/10/24 03:57:43;;;;;;;1.00;1.00;;;;;;;1.41;100.00;98393.53;4752389;30;20052;-83
2023/10/24 04:00:10;;;;;;;1.00;1.00;;;;;;;1.35;100.00;98394.34;4752918;30;20540;-85
2023/10/24 04:02:40;;;;;;;1.00;1.00;;;;;;;1.37;100.00;98393.13;4751518;30;20056;-83
2023/10/24 04:05:09;;;;;;;0.80;0.80;;;;;;;1.44;100.00;98390.47;4753027;30;20088;-85
2023/10/24 04:07:36;;;;;;;0.98;0.98;;;;;;;1.46;100.00;98404.38;4752887;30;20059;-83
2023/10/24 04:10:04;;;;;;;0.90;0.90;;;;;;;1.48;100.00;98407.66;4765522;30;20060;-84
2023/10/24 04:12:31;;;;;;;1.00;1.00;;;;;;;1.50;100.00;98419.75;4774226;30;20113;-85
2023/10/24 04:14:58;;;;;;;0.93;0.93;;;;;;;1.46;100.00;98417.69;4765979;30;20128;-82
2023/10/24 04:17:25;;;;;;;0.90;0.90;;;;;;;1.41;100.00;98420.13;4755986;30;20067;-86
2023/10/24 04:19:53;;;;;;;1.00;1.00;;;;;;;1.44;100.00;98422.38;4759589;30;20112;-82
2023/10/24 04:22:20;;;;;;;0.80;0.80;;;;;;;1.42;100.00;98429.72;4741869;30;20052;-84
2023/10/24 04:24:47;;;;;;;0.85;0.85;;;;;;;1.45;100.00;98443.47;4742527;30;20433;-83
2023/10/24 04:27:14;;;;;;;0.90;0.90;;;;;;;1.47;100.00;98451.25;4757915;30;20071;-84
2023/10/24 04:29:42;;;;;;;0.80;0.80;;;;;;;1.43;100.00;98455.31;4755939;30;20064;-84
2023/10/24 04:32:09;;;;;;;0.90;0.90;;;;;;;1.46;100.00;98460.22;4756027;30;20056;-84
2023/10/24 04:34:37;;;;;;;0.90;0.90;;;;;;;1.41;100.00;98462.66;4750329;30;20048;-83
2023/10/24 04:37:04;;;;;;;0.93;0.93;;;;;;;1.49;100.00;98462.47;4747983;30;20067;-84
2023/10/24 04:39:32;;;;;;;0.90;0.90;;;;;;;1.49;100.00;98481.09;4746371;30;20146;-85
2023/10/24 04:41:59;;;;;;;0.93;0.93;;;;;;;1.49;100.00;98475.78;4749660;30;20052;-84
2023/10/24 04:44:27;;;;;;;0.85;0.85;;;;;;;1.48;100.00;98474.97;4754226;30;20060;-85
2023/10/24 04:46:54;;;;;;;0.90;0.90;;;;;;;1.56;100.00;98476.63;4753980;30;20085;-86
2023/10/24 04:49:22;;;;;;;0.90;0.90;;;;;;;1.59;100.00;98478.88;4761330;30;20056;-84
2023/10/24 04:51:49;;;;;;;1.00;1.00;;;;;;;1.57;100.00;98477.44;4751487;30;20540;-84
2023/10/24 04:54:16;;;;;;;0.90;0.90;;;;;;;1.52;100.00;98480.72;4750804;30;20525;-83
2023/10/24 04:56:43;;;;;;;0.90;0.90;;;;;;;1.59;100.00;98497.50;4752222;30;20067;-84
2023/10/24 04:59:10;;;;;;;1.00;1.00;;;;;;;1.62;100.00;98497.13;4429280;30;10001030;-81
2023/10/24 05:01:38;;;;;;;0.98;0.98;;;;;;;1.62;100.00;98504.25;4753005;30;20051;-83
2023/10/24 05:04:06;;;;;;;0.90;0.90;;;;;;;1.64;100.00;98516.34;4753576;30;20105;-85
2023/10/24 05:06:33;;;;;;;1.00;1.00;;;;;;;1.60;100.00;98504.47;4744901;30;20303;-84
2023/10/24 05:09:00;;;;;;;1.10;1.10;;;;;;;1.61;100.00;98511.44;4749684;30;20060;-87
2023/10/24 05:11:28;;;;;;;1.00;1.00;;;;;;;1.63;100.00;98505.91;4748701;30;20063;-84
2023/10/24 05:13:55;;;;;;;0.90;0.90;;;;;;;1.61;100.00;98515.94;4747408;30;20438;-84
2023/10/24 05:16:22;;;;;;;0.85;0.85;;;;;;;1.65;100.00;98515.34;4731679;30;20481;-85
2023/10/24 05:18:49;;;;;;;0.90;0.90;;;;;;;1.65;100.00;98512.69;4753960;30;20052;-87
2023/10/24 05:21:17;;;;;;;0.90;0.90;;;;;;;1.63;100.00;98505.91;4750493;30;20052;-84
2023/10/24 05:23:44;;;;;;;0.90;0.90;;;;;;;1.64;100.00;98511.03;4747368;30;20103;-84
2023/10/24 05:26:11;;;;;;;0.90;0.90;;;;;;;1.69;100.00;98518.41;4747161;30;20227;-84
2023/10/24 05:28:38;;;;;;;1.00;1.00;;;;;;;1.78;100.00;98521.75;4752904;30;20279;-82
2023/10/24 05:31:07;;;;;;;1.00;1.00;;;;;;;1.79;100.00;98528.69;4743419;30;20066;-83
2023/10/24 05:33:35;;;;;;;0.80;0.80;;;;;;;1.73;100.00;98533.78;4737206;30;20060;-83
2023/10/24 05:36:06;;;;;;;1.00;1.00;;;;;;;1.74;100.00;98538.06;4740976;30;20118;-84
2023/10/24 05:38:33;;;;;;;1.00;1.00;;;;;;;1.78;100.00;98543.03;4760563;24;20436;-83
2023/10/24 05:41:01;;;;;;;0.90;0.90;;;;;;;1.77;100.00;98533.38;4757222;30;20059;-84
2023/10/24 05:43:28;;;;;;;0.80;0.80;;;;;;;1.74;100.00;98538.06;4747338;30;20109;-83
2023/10/24 05:45:55;;;;;;;0.80;0.80;;;;;;;1.88;100.00;98548.78;4779466;30;20519;-85
2023/10/24 05:48:25;;;;;;;0.90;0.90;;;;;;;1.86;100.00;98548.16;4770150;30;20389;-86
2023/10/24 05:50:52;;;;;;;0.90;0.90;;;;;;;1.79;100.00;98547.31;4756440;30;20056;-85
2023/10/24 05:53:19;;;;;;;1.00;1.00;;;;;;;1.73;100.00;98552.41;4748135;30;20060;-84
2023/10/24 05:55:49;;;;;;;0.80;0.80;;;;;;;1.70;100.00;98549.34;4771490;30;20056;-84
2023/10/24 05:58:19;;;;;;;0.90;0.90;;;;;;;1.62;100.00;98557.47;4748837;30;20121;-84
2023/10/24 06:00:46;;;;;;;0.80;0.80;;;;;;;1.51;100.00;98548.22;4744471;30;20074;-83
2023/10/24 06:03:13;;;;;;;0.90;0.90;;;;;;;1.59;100.00;98553.34;4754762;30;20060;-85
2023/10/24 06:05:41;;;;;;;0.85;0.85;;;;;;;1.57;100.00;98547.44;4760546;30;20227;-84
2023/10/24 06:08:08;;;;;;;0.80;0.80;;;;;;;1.76;100.00;98555.69;4757103;30;20078;-84
2023/10/24 06:10:38;;;;;;;1.00;1.00;;;;;;;1.87;100.00;98563.91;4743426;30;20058;-82
2023/10/24 06:13:05;;;;;;;1.00;1.00;;;;;;;1.93;100.00;98560.47;4755383;30;20067;-85
2023/10/24 06:15:35;;;;;;;0.80;0.80;;;;;;;2.02;100.00;98555.78;4759180;30;20056;-85
2023/10/24 06:18:03;;;;;;;0.80;0.80;;;;;;;2.01;99.87;98558.66;4763034;30;20167;-84
2023/10/24 06:20:31;;;;;;;0.88;0.88;;;;;;;1.94;98.96;98562.09;4747140;30;20492;-83
2023/10/24 06:22:58;;;;;;;1.00;1.00;;;;;;;1.93;98.66;98563.13;4758491;30;20060;-82
2023/10/24 06:25:26;;;;;;;0.90;0.90;;;;;;;1.93;98.89;98559.66;4733327;29;20063;-84
2023/10/24 06:27:56;;;;;;;1.00;1.00;;;;;;;2.05;99.33;98560.72;4764914;30;20058;-85
2023/10/24 06:30:43;;;;;;;0.90;0.90;;;;;;;2.12;99.04;98577.50;4758093;30;20055;-86
2023/10/24 06:33:18;;;;;;;1.02;1.02;;;;;;;2.11;99.16;98575.88;4731615;30;20076;-85
2023/10/24 06:35:49;;;;;;;0.90;0.90;;;;;;;2.17;99.22;98590.22;4758314;30;20154;-83
2023/10/24 06:38:20;;;;;;;1.10;1.10;;;;;;;2.24;98.80;98580.41;4762181;30;20055;-87
2023/10/24 06:40:49;;;;;;;1.00;1.00;;;;;;;2.24;98.54;98575.09;4773508;30;20913;-84
2023/10/24 06:43:18;;;;;;;1.00;1.00;;;;;;;2.26;98.12;98580.22;4762324;30;20062;-83
2023/10/24 06:45:46;;;;;;;1.05;1.05;;;;;;;2.17;97.30;98582.22;4777888;29;20059;-82
2023/10/24 06:48:17;;;;;;;0.90;0.90;;;;;;;2.20;97.22;98586.34;4761132;30;20047;-82
2023/10/24 06:50:44;;;;;;;1.00;1.00;;;;;;;2.17;97.30;98584.91;4759251;30;20060;-84
2023/10/24 06:53:12;;;;;;;1.00;1.00;;;;;;;2.13;97.00;98589.81;4740779;30;20273;-82
2023/10/24 06:55:40;;;;;;;0.90;0.90;;;;;;;2.11;96.72;98593.69;4764777;29;20097;-84
2023/10/24 06:58:08;;;;;;;0.93;0.93;;;;;;;2.03;96.25;98589.38;4770080;30;20106;-81
2023/10/24 07:00:56;;;;;;;0.80;0.80;;;;;;;2.01;96.01;98596.72;4790067;29;20093;-80
2023/10/24 07:03:26;;;;;;;0.73;0.73;;;;;;;2.01;96.25;98595.91;4763916;30;20154;-80
2023/10/24 07:05:54;;;;;;;0.80;0.80;;;;;;;2.01;96.16;98588.75;4750520;30;20055;-82
2023/10/24 07:08:22;;;;;;;1.00;1.00;;;;;;;2.04;96.43;98591.00;4761878;30;20056;-82
2023/10/24 07:10:53;;;;;;;1.00;1.00;;;;;;;2.15;96.32;98603.75;4759140;29;20078;-80
2023/10/24 07:13:22;;;;;;;1.00;1.00;;;;;;;2.16;96.53;98605.38;4775514;29;20070;-83
2023/10/24 07:15:52;;;;;;;0.90;0.90;;;;;;;2.14;96.65;98599.44;4746311;30;20056;-87
2023/10/24 07:18:20;;;;;;;0.90;0.90;;;;;;;2.15;96.52;98602.91;4754877;30;20692;-82
2023/10/24 07:20:48;;;;;;;0.80;0.80;;;;;;;2.11;96.22;98607.00;4752236;30;20087;-86
2023/10/24 07:23:16;;;;;;;0.90;0.90;;;;;;;1.99;96.02;98601.44;4769316;30;20146;-83
2023/10/24 07:25:56;;;;;;;0.90;0.90;;;;;;;2.07;96.19;98611.88;4765179;30;20051;-84
2023/10/24 07:28:23;;;;;;;0.90;0.90;;;;;;;2.10;96.21;98608.84;4773212;30;20047;-83
2023/10/24 07:30:54;;;;;;;0.80;0.80;;;;;;;2.12;96.26;98609.44;4749062;29;20346;-82
2023/10/24 07:33:25;;;;;;;0.90;0.90;;;;;;;2.20;96.41;98623.63;4759275;29;20062;-82
2023/10/24 07:35:52;;;;;;;0.90;0.90;;;;;;;2.16;95.70;98621.34;4776945;29;20057;-88
2023/10/24 07:38:24;;;;;;;0.90;0.90;;;;;;;2.20;95.41;98624.44;4794908;29;20437;-82
2023/10/24 07:40:51;;;;;;;0.90;0.90;;;;;;;2.16;94.93;98624.03;4788173;29;20077;-85
2023/10/24 07:43:18;;;;;;;1.10;1.10;;;;;;;2.23;94.63;98629.38;4790451;29;20452;-85
2023/10/24 07:45:50;;;;;;;0.93;0.93;;;;;;;2.25;95.02;98619.31;4801895;29;20051;-84
2023/10/24 07:48:17;;;;;;;0.90;0.90;;;;;;;2.24;94.19;98630.19;4787119;29;20055;-82
2023/10/24 07:50:49;;;;;;;0.90;0.90;;;;;;;2.10;93.75;98619.50;4788590;30;20082;-83
2023/10/24 07:53:16;;;;;;;0.90;0.90;;;;;;;2.14;93.63;98636.69;4789021;30;20646;-84
2023/10/24 07:55:44;;;;;;;0.82;0.82;;;;;;;2.03;93.55;98629.31;4772849;30;20146;-83
2023/10/24 07:58:11;;;;;;;0.90;0.90;;;;;;;2.07;93.72;98643.84;4787985;30;20050;-83
2023/10/24 08:00:38;;;;;;;1.00;1.00;;;;;;;2.07;94.01;98646.50;4772744;30;20048;-84
2023/10/24 08:03:06;;;;;;;0.90;0.90;;;;;;;2.08;93.93;98640.16;4788336;30;20530;-82
2023/10/24 08:05:33;;;;;;;0.90;0.90;;;;;;;2.08;94.11;98645.50;4794863;29;20051;-82
2023/10/24 08:08:00;;;;;;;0.90;0.90;;;;;;;2.07;93.95;98643.03;4806249;29;20059;-82
2023/10/24 08:10:28;;;;;;;0.93;0.93;;;;;;;2.01;94.11;98638.50;4806675;29;20050;-83
2023/10/24 08:12:55;;;;;;;0.90;0.90;;;;;;;2.05;94.10;98647.72;4806004;29;20059;-84
2023/10/24 08:15:22;;;;;;;1.00;1.00;;;;;;;2.08;94.13;98650.81;4775271;29;20077;-83
2023/10/24 08:17:50;;;;;;;0.90;0.90;;;;;;;2.10;94.27;98654.13;4805884;29;20051;-83
2023/10/24 08:20:19;;;;;;;1.00;1.00;;;;;;;2.15;94.08;98658.81;4790088;29;20058;-81
2023/10/24 08:22:47;;;;;;;0.90;0.90;;;;;;;2.17;94.00;98662.09;4789984;29;20491;-84
2023/10/24 08:25:14;;;;;;;0.98;0.98;;;;;;;2.23;93.65;98660.47;4805959;29;20082;-83
2023/10/24 08:27:42;;;;;;;0.90;0.90;;;;;;;2.21;93.47;98652.72;4805971;29;20059;-83
2023/10/24 08:30:10;;;;;;;1.00;1.00;;;;;;;2.29;93.67;98663.19;4789431;29;20061;-83
2023/10/24 08:32:37;;;;;;;0.93;0.93;;;;;;;2.34;93.69;98668.72;4806754;29;20058;-83
2023/10/24 08:35:05;;;;;;;0.90;0.90;;;;;;;2.43;93.83;98672.06;4805802;29;20491;-83
2023/10/24 08:37:34;;;;;;;1.00;1.00;;;;;;;2.38;93.44;98667.31;4789346;29;20078;-83
2023/10/24 08:40:03;;;;;;;0.90;0.90;;;;;;;2.38;93.30;98666.47;4806347;29;20063;-83
2023/10/24 08:42:30;;;;;;;0.90;0.90;;;;;;;2.38;93.31;98671.81;4789737;29;20055;-84
2023/10/24 08:44:59;;;;;;;0.85;0.85;;;;;;;2.33;93.16;98668.91;4805214;29;20050;-83
2023/10/24 08:47:29;;;;;;;0.93;0.93;;;;;;;2.28;93.04;98674.03;4804423;29;20063;-83
2023/10/24 08:49:59;;;;;;;0.95;0.95;;;;;;;2.18;93.00;98669.09;4802698;29;20047;-83
2023/10/24 08:52:30;;;;;;;0.90;0.90;;;;;;;2.23;93.03;98668.47;4805288;29;20063;-82
2023/10/24 08:55:04;;;;;;;1.00;1.00;;;;;;;2.17;92.80;98675.41;4789072;29;20054;-83
2023/10/24 08:57:42;;;;;;;0.90;0.90;;;;;;;2.16;92.93;98684.44;4789314;29;20473;-83
2023/10/24 09:00:11;;;;;;;1.00;1.00;;;;;;;2.05;92.76;98677.84;4805202;29;20059;-85
2023/10/24 09:02:41;;;;;;;1.00;1.00;;;;;;;1.98;92.97;98681.50;4805601;29;20391;-84
2023/10/24 09:05:25;;;;;;;1.00;1.00;;;;;;;1.98;93.44;98686.81;4789465;29;20066;-84
2023/10/24 09:07:52;;;;;;;1.00;1.00;;;;;;;1.89;93.22;98680.81;4804424;29;20061;-82
2023/10/24 09:10:20;;;;;;;0.90;0.90;;;;;;;1.98;93.81;98692.97;4805065;29;20065;-82
2023/10/24 09:12:53;;;;;;;0.90;0.90;;;;;;;2.01;93.93;98691.75;4805900;29;20054;-82
2023/10/24 09:15:20;;;;;;;0.90;0.90;;;;;;;1.92;93.80;98683.94;4789966;29;20055;-82
2023/10/24 09:17:47;;;;;;;0.98;0.98;;;;;;;2.03;93.89;98693.19;4775334;29;20078;-82
2023/10/24 09:20:17;;;;;;;0.90;0.90;;;;;;;1.99;93.80;98689.25;4806898;29;20086;-84
2023/10/24 09:22:45;;;;;;;1.00;1.00;;;;;;;2.06;94.47;98698.09;4806622;29;20055;-83
2023/10/24 09:25:14;;;;;;;1.00;1.00;;;;;;;2.04;94.54;98694.81;4806144;29;20051;-84
2023/10/24 09:27:41;;;;;;;1.00;1.00;;;;;;;2.08;94.89;98703.25;4807747;29;20059;-85
2023/10/24 09:30:12;;;;;;;0.80;0.80;;;;;;;1.99;94.87;98705.22;4810011;29;20055;-84
2023/10/24 09:32:43;;;;;;;0.90;0.90;;;;;;;1.94;95.10;98713.78;4805013;29;20058;-85
2023/10/24 09:35:10;;;;;;;1.00;1.00;;;;;;;1.93;95.77;98711.34;4812064;29;20089;-84
2023/10/24 09:37:39;;;;;;;0.90;0.90;;;;;;;1.83;95.97;98711.69;4809779;29;20587;-84
2023/10/24 09:40:07;;;;;;;1.00;1.00;;;;;;;1.68;96.18;98718.97;4804107;29;20162;-84
2023/10/24 09:42:34;;;;;;;0.93;0.93;;;;;;;1.51;96.69;98715.75;4804607;29;20435;-83
2023/10/24 09:45:07;;;;;;;1.00;1.00;;;;;;;1.35;97.06;98722.19;4803119;29;20058;-84
2023/10/24 09:47:36;;;;;;;0.98;0.98;;;;;;;1.28;97.64;98730.09;4803990;29;20316;-84
2023/10/24 09:50:08;;;;;;;1.00;1.00;;;;;;;1.27;97.67;98731.13;4774040;29;20395;-83
2023/10/24 09:52:38;;;;;;;0.90;0.90;;;;;;;1.17;97.99;98732.47;4789096;29;20055;-84
2023/10/24 09:55:06;;;;;;;1.00;1.00;;;;;;;1.11;98.35;98720.75;4758686;29;20047;-84
2023/10/24 09:57:34;;;;;;;1.00;1.00;;;;;;;1.18;98.38;98740.25;4788090;29;20404;-84
2023/10/24 10:00:03;;;;;;;0.90;0.90;;;;;;;1.20;98.57;98738.22;4788312;29;20057;-84
2023/10/24 10:02:40;;;;;;;1.00;1.00;;;;;;;1.17;98.38;98761.72;4789105;29;20065;-84
2023/10/24 10:05:09;;;;;;;0.90;0.90;;;;;;;1.14;98.41;98756.75;4803635;29;20453;-83
2023/10/24 10:07:38;;;;;;;0.90;0.90;;;;;;;1.19;98.38;98752.53;4804495;29;20529;-84
2023/10/24 10:10:06;;;;;;;1.10;1.10;;;;;;;1.35;98.48;98753.28;4802867;29;20089;-84
2023/10/24 10:12:34;;;;;;;1.00;1.00;;;;;;;1.57;98.12;98754.06;4788188;29;20063;-83
2023/10/24 10:15:21;;;;;;;1.00;1.00;;;;;;;1.78;97.18;98758.53;4804401;29;20055;-84
2023/10/24 10:18:10;;;;;;;1.00;1.00;;;;;;;1.94;96.30;98755.56;4804856;29;20078;-84
2023/10/24 10:21:05;;;;;;;1.10;1.10;;;;;;;1.97;94.29;98759.69;4805273;29;20055;-84
2023/10/24 10:24:02;;;;;;;0.80;0.80;;;;;;;2.09;92.48;98766.91;4788249;29;20061;-84
2023/10/24 10:26:53;;;;;;;1.00;1.00;;;;;;;2.01;90.29;98772.41;4803255;29;20487;-84
2023/10/24 10:29:54;;;;;;;1.00;1.00;;;;;;;1.85;88.05;98765.56;4781742;29;20070;-84
2023/10/24 10:32:51;;;;;;;1.00;1.00;;;;;;;1.77;87.52;98786.97;4804523;29;20062;-85
2023/10/24 10:35:54;;;;;;;1.00;1.00;;;;;;;1.66;87.11;98780.34;4788298;29;20139;-83
2023/10/24 10:38:38;;;;;;;1.00;1.00;;;;;;;1.71;86.59;98783.25;4783687;29;20063;-84
2023/10/24 10:41:23;;;;;;;1.00;1.00;;;;;;;1.56;85.73;98782.50;4787004;29;20060;-84
2023/10/24 10:43:53;;;;;;;0.90;0.90;;;;;;;1.56;86.07;98789.66;4785206;29;20142;-86
2023/10/24 10:46:24;;;;;;;0.80;0.80;;;;;;;1.51;86.24;98790.25;4774468;30;20048;-86
2023/10/24 10:48:52;;;;;;;1.00;1.00;;;;;;;1.42;85.42;98794.88;4783204;30;20175;-86
2023/10/24 10:51:25;;;;;;;1.00;1.00;;;;;;;1.30;84.99;98807.03;4771547;29;20187;-86
2023/10/24 10:54:17;;;;;;;1.02;1.02;;;;;;;1.40;85.07;98802.22;4795974;29;20051;-86
2023/10/24 10:56:47;;;;;;;1.10;1.10;;;;;;;1.53;85.25;98804.19;4789494;29;20047;-86
2023/10/24 10:59:48;;;;;;;1.10;1.10;;;;;;;1.61;84.49;98809.34;4789679;29;20112;-85
2023/10/24 11:02:49;;;;;;;0.93;0.93;;;;;;;1.72;82.55;98806.19;4790243;29;20160;-90
2023/10/24 11:05:35;;;;;;;1.00;1.00;;;;;;;1.79;82.43;98802.75;4790077;29;20074;-86
2023/10/24 11:08:04;;;;;;;1.10;1.10;;;;;;;1.92;82.36;98811.66;4794625;29;20112;-86
2023/10/24 11:10:51;;;;;;;1.10;1.10;;;;;;;2.00;81.12;98813.38;4785892;29;20055;-83
2023/10/24 11:13:38;;;;;;;1.00;1.00;;;;;;;1.99;80.40;98816.22;4790694;29;20185;-83
2023/10/24 11:16:07;;;;;;;1.00;1.00;;;;;;;2.07;79.90;98824.84;4779914;29;20059;-83
2023/10/24 11:18:53;;;;;;;1.00;1.00;;;;;;;1.95;78.60;98818.44;4783225;29;20084;-83
2023/10/24 11:21:21;;;;;;;1.10;1.10;;;;;;;1.90;77.96;98820.84;4785234;30;20082;-84
2023/10/24 11:23:48;;;;;;;1.00;1.00;;;;;;;1.83;78.09;98826.13;4781415;30;20108;-82
2023/10/24 11:26:15;;;;;;;1.00;1.00;;;;;;;1.77;77.71;98828.72;4771193;30;20056;-84
2023/10/24 11:28:43;;;;;;;1.00;1.00;;;;;;;1.77;78.04;98836.69;4783217;29;20454;-83
2023/10/24 11:31:23;;;;;;;0.90;0.90;;;;;;;1.75;78.46;98836.91;4783180;29;20087;-85
2023/10/24 11:33:51;;;;;;;1.00;1.00;;;;;;;1.71;78.52;98841.78;4782221;29;20055;-83
2023/10/24 11:36:18;;;;;;;1.00;1.00;;;;;;;1.54;78.33;98835.06;4795504;29;20082;-84
2023/10/24 11:38:46;;;;;;;0.90;0.90;;;;;;;1.55;78.86;98844.72;4763205;30;20056;-83
2023/10/24 11:41:13;;;;;;;1.00;1.00;;;;;;;1.52;79.42;98853.06;4778386;30;20056;-84
2023/10/24 11:43:40;;;;;;;1.05;1.05;;;;;;;1.60;80.05;98852.94;4764334;30;20058;-84
2023/10/24 11:46:08;;;;;;;0.90;0.90;;;;;;;1.52;79.80;98863.72;4787540;29;20057;-83
2023/10/24 11:48:35;;;;;;;1.00;1.00;;;;;;;1.35;79.49;98868.44;4791799;29;20050;-84